Time;durP1;ratioP1;P1;durP2;ratioP2;P2;SDS_P1;SDS_P2;PMS_P1;PMS_P2;Temp;Humidity;BMP_temperature;BMP_pressure;BME280_temperature;BME280_humidity;BME280_pressure;Samples;Min_cycle;Max_cycle;Signal;HPM_P1;HPM_P2
2024/01/16 00:00:55;;;;;;;86.80;82.03;;;;;;;;;;5068395;28;20510;-63
2024/01/16 00:03:26;;;;;;;144.55;137.27;;;;;;;;;;5067619;28;20426;-62
2024/01/16 00:05:53;;;;;;;144.10;136.68;;;;;;;;;;5072920;28;20850;-63
2024/01/16 00:08:20;;;;;;;158.70;150.65;;;;;;;;;;5068854;28;20462;-62
2024/01/16 00:10:47;;;;;;;77.05;72.93;;;;;;;;;;5076247;28;20429;-62
2024/01/16 00:13:15;;;;;;;112.95;107.05;;;;;;;;;;5075716;28;20554;-62
2024/01/16 00:15:42;;;;;;;98.00;92.82;;;;;;;;;;5068783;28;20432;-62
2024/01/16 00:18:09;;;;;;;116.43;110.28;;;;;;;;;;5076386;28;20431;-62
2024/01/16 00:20:37;;;;;;;132.57;125.68;;;;;;;;;;5070606;28;20423;-62
2024/01/16 00:23:04;;;;;;;163.93;154.68;;;;;;;;;;5076210;28;20425;-62
2024/01/16 00:25:31;;;;;;;134.55;127.63;;;;;;;;;;5068108;28;20466;-62
2024/01/16 00:27:59;;;;;;;152.20;144.50;;;;;;;;;;5077686;28;20504;-62
2024/01/16 00:30:26;;;;;;;146.18;138.68;;;;;;;;;;5070947;28;20924;-62
2024/01/16 00:32:55;;;;;;;147.82;140.10;;;;;;;;;;5064365;28;20429;-63
2024/01/16 00:35:23;;;;;;;148.27;140.67;;;;;;;;;;5070252;28;20457;-62
2024/01/16 00:37:50;;;;;;;87.10;82.43;;;;;;;;;;5068974;28;20423;-62
2024/01/16 00:40:17;;;;;;;142.35;134.45;;;;;;;;;;5068746;28;20461;-62
2024/01/16 00:42:44;;;;;;;102.55;97.18;;;;;;;;;;5051070;28;20769;-62
2024/01/16 00:45:12;;;;;;;153.57;145.77;;;;;;;;;;5068691;28;20421;-62
2024/01/16 00:47:39;;;;;;;148.65;141.18;;;;;;;;;;5071031;28;21939;-62
2024/01/16 00:50:07;;;;;;;131.18;124.38;;;;;;;;;;5061737;28;20996;-63
2024/01/16 00:52:34;;;;;;;119.22;113.13;;;;;;;;;;5067674;28;20435;-63
2024/01/16 00:55:02;;;;;;;132.52;125.78;;;;;;;;;;5068372;28;20815;-62
2024/01/16 00:57:29;;;;;;;115.22;109.32;;;;;;;;;;5067884;28;21113;-63
2024/01/16 00:59:59;;;;;;;104.43;98.80;;;;;;;;;;5075374;28;20431;-62
2024/01/16 01:02:30;;;;;;;82.68;78.28;;;;;;;;;;5075441;28;20427;-63
2024/01/16 01:04:59;;;;;;;119.13;113.03;;;;;;;;;;5067675;28;20435;-62
2024/01/16 01:07:26;;;;;;;118.47;112.32;;;;;;;;;;5068992;28;20428;-62
2024/01/16 01:09:54;;;;;;;121.38;115.05;;;;;;;;;;5076762;28;20830;-62
2024/01/16 01:12:22;;;;;;;108.10;102.57;;;;;;;;;;5078296;28;20482;-62
2024/01/16 01:14:49;;;;;;;107.00;101.22;;;;;;;;;;5060987;28;20522;-62
2024/01/16 01:17:20;;;;;;;106.10;100.40;;;;;;;;;;5069473;28;20429;-62
2024/01/16 01:19:47;;;;;;;101.43;96.07;;;;;;;;;;5064214;28;20430;-62
2024/01/16 01:22:14;;;;;;;87.13;82.38;;;;;;;;;;5088040;28;20905;-62
2024/01/16 01:24:44;;;;;;;99.53;94.30;;;;;;;;;;5058520;28;20492;-62
2024/01/16 01:27:11;;;;;;;103.15;97.68;;;;;;;;;;5082366;28;20433;-62
2024/01/16 01:29:41;;;;;;;82.90;78.25;;;;;;;;;;5072365;28;20431;-62
2024/01/16 01:32:09;;;;;;;64.15;60.45;;;;;;;;;;5072887;28;20460;-62
2024/01/16 01:34:38;;;;;;;97.50;92.32;;;;;;;;;;5080030;28;20949;-63
2024/01/16 01:37:05;;;;;;;88.05;83.35;;;;;;;;;;5072784;28;20463;-62
2024/01/16 01:39:32;;;;;;;85.65;81.05;;;;;;;;;;5074893;28;20522;-62
2024/01/16 01:41:59;;;;;;;60.58;57.28;;;;;;;;;;5079485;28;20430;-62
2024/01/16 01:44:27;;;;;;;86.00;81.37;;;;;;;;;;5078267;28;20432;-62
2024/01/16 01:46:55;;;;;;;92.05;86.97;;;;;;;;;;5066101;28;20435;-63
2024/01/16 01:49:23;;;;;;;83.75;78.97;;;;;;;;;;5060588;28;20789;-62
2024/01/16 01:51:51;;;;;;;93.85;88.57;;;;;;;;;;5070873;28;20898;-62
2024/01/16 01:54:20;;;;;;;107.28;101.20;;;;;;;;;;5060406;28;20484;-63
2024/01/16 01:56:50;;;;;;;85.70;80.95;;;;;;;;;;5070375;28;20436;-62
2024/01/16 01:59:18;;;;;;;92.53;87.30;;;;;;;;;;5070498;28;20531;-63
2024/01/16 02:01:49;;;;;;;91.55;86.45;;;;;;;;;;5052140;28;20436;-63
2024/01/16 02:04:17;;;;;;;94.30;88.97;;;;;;;;;;5075530;28;20438;-63
2024/01/16 02:06:44;;;;;;;98.97;93.38;;;;;;;;;;5075291;28;20832;-62
2024/01/16 02:09:15;;;;;;;101.32;95.68;;;;;;;;;;5066948;28;20514;-62
2024/01/16 02:11:42;;;;;;;98.05;92.55;;;;;;;;;;5062595;28;20981;-62
2024/01/16 02:14:10;;;;;;;98.95;93.43;;;;;;;;;;5085297;28;20459;-62
2024/01/16 02:16:38;;;;;;;93.28;88.07;;;;;;;;;;5067738;28;20424;-62
2024/01/16 02:19:06;;;;;;;105.68;98.43;;;;;;;;;;5064360;28;20435;-62
2024/01/16 02:21:44;;;;;;;87.57;82.78;;;;;;;;;;5067005;28;20480;-62
2024/01/16 02:24:16;;;;;;;65.50;61.27;;;;;;;;;;5065835;28;20456;-62
2024/01/16 02:26:47;;;;;;;79.10;74.80;;;;;;;;;;5067033;28;20432;-62
2024/01/16 02:29:16;;;;;;;73.63;69.50;;;;;;;;;;5070290;28;20508;-62
2024/01/16 02:31:43;;;;;;;81.15;76.75;;;;;;;;;;5068482;28;20442;-62
2024/01/16 02:34:10;;;;;;;89.88;85.05;;;;;;;;;;5075592;28;20430;-62
2024/01/16 02:36:38;;;;;;;79.00;74.78;;;;;;;;;;5075392;28;20435;-62
2024/01/16 02:39:06;;;;;;;78.43;73.57;;;;;;;;;;5069747;28;20431;-62
2024/01/16 02:41:36;;;;;;;83.72;79.05;;;;;;;;;;5077995;28;20518;-62
2024/01/16 02:44:03;;;;;;;78.90;74.47;;;;;;;;;;5076640;28;20510;-62
2024/01/16 02:46:32;;;;;;;85.55;80.65;;;;;;;;;;5071828;28;20466;-62
2024/01/16 02:48:59;;;;;;;88.72;83.95;;;;;;;;;;5060550;28;20476;-62
2024/01/16 02:51:27;;;;;;;84.28;79.55;;;;;;;;;;5075932;28;20431;-62
2024/01/16 02:53:54;;;;;;;81.87;77.40;;;;;;;;;;5076938;28;20565;-62
2024/01/16 02:56:21;;;;;;;95.03;90.07;;;;;;;;;;5077911;28;20437;-62
2024/01/16 02:59:01;;;;;;;92.28;87.38;;;;;;;;;;5063920;28;20419;-62
2024/01/16 03:01:28;;;;;;;81.53;77.22;;;;;;;;;;5073662;28;20477;-62
2024/01/16 03:03:55;;;;;;;66.80;63.10;;;;;;;;;;5068622;28;21029;-62
2024/01/16 03:06:25;;;;;;;56.28;53.13;;;;;;;;;;5074571;28;20435;-62
2024/01/16 03:08:53;;;;;;;76.63;72.38;;;;;;;;;;5067973;28;20543;-62
2024/01/16 03:11:20;;;;;;;73.30;69.35;;;;;;;;;;5078786;28;20446;-62
2024/01/16 03:13:49;;;;;;;78.18;73.72;;;;;;;;;;5068609;28;20481;-62
2024/01/16 03:16:16;;;;;;;76.90;72.53;;;;;;;;;;5067939;28;20504;-62
2024/01/16 03:18:43;;;;;;;85.73;80.87;;;;;;;;;;5067542;28;20903;-62
2024/01/16 03:21:11;;;;;;;86.28;81.57;;;;;;;;;;5053382;28;20467;-62
2024/01/16 03:23:41;;;;;;;79.00;74.37;;;;;;;;;;5071036;28;20425;-62
2024/01/16 03:26:12;;;;;;;53.45;49.35;;;;;;;;;;5059274;28;20867;-62
2024/01/16 03:28:42;;;;;;;58.65;55.05;;;;;;;;;;5068951;28;20511;-62
2024/01/16 03:31:09;;;;;;;88.18;83.30;;;;;;;;;;5069314;28;20439;-62
2024/01/16 03:33:42;;;;;;;79.55;74.82;;;;;;;;;;5085730;28;20441;-62
2024/01/16 03:36:11;;;;;;;79.40;74.70;;;;;;;;;;5075821;28;20422;-62
2024/01/16 03:38:38;;;;;;;73.20;69.05;;;;;;;;;;5065988;28;20441;-62
2024/01/16 03:41:07;;;;;;;59.55;56.25;;;;;;;;;;5068104;28;20945;-62
2024/01/16 03:43:37;;;;;;;78.18;73.80;;;;;;;;;;5068408;28;20824;-62
2024/01/16 03:46:04;;;;;;;84.67;80.10;;;;;;;;;;5062533;28;20502;-62
2024/01/16 03:48:31;;;;;;;87.23;82.47;;;;;;;;;;5063602;28;20431;-62
2024/01/16 03:50:59;;;;;;;87.78;82.97;;;;;;;;;;5067002;28;20435;-62
2024/01/16 03:53:26;;;;;;;66.95;63.20;;;;;;;;;;5065446;28;20539;-62
2024/01/16 03:55:53;;;;;;;90.88;85.97;;;;;;;;;;5068778;28;20803;-62
2024/01/16 03:58:20;;;;;;;89.70;84.53;;;;;;;;;;5067820;28;20424;-62
2024/01/16 04:00:50;;;;;;;94.10;88.85;;;;;;;;;;5071996;28;20449;-62
2024/01/16 04:03:18;;;;;;;91.00;85.93;;;;;;;;;;5074389;28;20495;-62
2024/01/16 04:05:45;;;;;;;113.70;107.40;;;;;;;;;;5064269;28;20434;-62
2024/01/16 04:08:13;;;;;;;112.88;106.82;;;;;;;;;;5067391;28;20504;-62
2024/01/16 04:10:40;;;;;;;104.85;99.22;;;;;;;;;;5070356;28;20427;-62
2024/01/16 04:13:07;;;;;;;93.40;88.47;;;;;;;;;;5071083;28;20426;-62
2024/01/16 04:15:34;;;;;;;97.00;91.63;;;;;;;;;;5074191;28;20789;-62
2024/01/16 04:18:01;;;;;;;91.00;85.93;;;;;;;;;;5066397;28;20480;-62
2024/01/16 04:20:29;;;;;;;102.85;97.30;;;;;;;;;;5073168;28;20502;-62
2024/01/16 04:22:57;;;;;;;96.25;90.93;;;;;;;;;;5068069;28;20458;-62
2024/01/16 04:25:24;;;;;;;106.72;100.40;;;;;;;;;;5077855;28;20482;-62
2024/01/16 04:27:52;;;;;;;108.85;103.00;;;;;;;;;;5070560;28;20443;-62
2024/01/16 04:30:20;;;;;;;77.57;73.43;;;;;;;;;;5075584;28;20431;-62
2024/01/16 04:32:47;;;;;;;80.60;76.32;;;;;;;;;;5076040;28;20767;-62
2024/01/16 04:35:14;;;;;;;88.15;83.25;;;;;;;;;;5065319;28;20427;-62
2024/01/16 04:37:42;;;;;;;80.57;76.03;;;;;;;;;;5071429;28;20426;-62
2024/01/16 04:40:09;;;;;;;80.88;76.35;;;;;;;;;;5079306;28;20457;-62
2024/01/16 04:42:36;;;;;;;76.40;72.13;;;;;;;;;;5073534;28;20434;-62
2024/01/16 04:45:06;;;;;;;74.22;70.00;;;;;;;;;;5075131;28;21051;-62
2024/01/16 04:47:34;;;;;;;89.32;84.38;;;;;;;;;;5063847;28;20469;-62
2024/01/16 04:50:01;;;;;;;80.88;76.30;;;;;;;;;;5059437;28;20506;-62
2024/01/16 04:52:35;;;;;;;89.40;84.43;;;;;;;;;;5078856;28;20427;-62
2024/01/16 04:55:02;;;;;;;97.83;92.63;;;;;;;;;;5067085;28;20434;-62
2024/01/16 04:57:29;;;;;;;99.20;93.80;;;;;;;;;;5058872;28;20459;-62
2024/01/16 04:59:56;;;;;;;89.90;85.00;;;;;;;;;;5066736;28;20454;-62
2024/01/16 05:02:29;;;;;;;92.90;87.82;;;;;;;;;;5071324;28;20473;-62
2024/01/16 05:04:57;;;;;;;92.22;87.10;;;;;;;;;;5080583;28;20423;-62
2024/01/16 05:07:24;;;;;;;99.18;93.75;;;;;;;;;;5077004;28;20478;-62
2024/01/16 05:09:51;;;;;;;100.30;94.80;;;;;;;;;;5079487;28;20434;-62
2024/01/16 05:12:19;;;;;;;97.15;91.82;;;;;;;;;;5076291;28;20866;-62
2024/01/16 05:14:46;;;;;;;103.85;98.30;;;;;;;;;;5079842;28;20429;-62
2024/01/16 05:17:13;;;;;;;103.82;98.20;;;;;;;;;;5071281;28;20545;-62
2024/01/16 05:19:41;;;;;;;114.88;108.43;;;;;;;;;;5072364;28;20419;-62
2024/01/16 05:22:08;;;;;;;92.35;87.35;;;;;;;;;;5069528;28;20434;-62
2024/01/16 05:24:35;;;;;;;89.88;84.93;;;;;;;;;;5058436;28;20809;-62
2024/01/16 05:27:04;;;;;;;90.57;85.72;;;;;;;;;;5069493;28;20439;-62
2024/01/16 05:29:31;;;;;;;90.93;85.90;;;;;;;;;;5083073;28;20499;-62
2024/01/16 05:31:58;;;;;;;104.13;98.82;;;;;;;;;;5066676;28;20494;-62
2024/01/16 05:34:26;;;;;;;91.45;86.55;;;;;;;;;;5070111;28;20427;-62
2024/01/16 05:36:53;;;;;;;92.68;87.70;;;;;;;;;;5078311;28;20427;-62
2024/01/16 05:39:21;;;;;;;100.60;95.03;;;;;;;;;;5080608;28;20589;-62
2024/01/16 05:41:53;;;;;;;99.15;93.90;;;;;;;;;;5071481;28;20425;-62
2024/01/16 05:44:20;;;;;;;114.03;108.03;;;;;;;;;;5068591;28;20431;-62
2024/01/16 05:46:47;;;;;;;101.72;96.13;;;;;;;;;;5066980;28;20423;-62
2024/01/16 05:49:14;;;;;;;100.17;94.80;;;;;;;;;;5079335;28;20435;-62
2024/01/16 05:51:42;;;;;;;95.43;90.30;;;;;;;;;;5078652;28;20880;-62
2024/01/16 05:54:09;;;;;;;74.72;70.68;;;;;;;;;;5069698;28;20439;-65
2024/01/16 05:56:37;;;;;;;79.38;75.15;;;;;;;;;;5072458;28;20902;-62
2024/01/16 05:59:04;;;;;;;71.47;67.57;;;;;;;;;;5070653;28;20424;-63
2024/01/16 06:01:31;;;;;;;100.35;95.05;;;;;;;;;;5065927;28;20432;-62
2024/01/16 06:03:59;;;;;;;96.50;91.28;;;;;;;;;;5078981;28;20430;-62
2024/01/16 06:06:27;;;;;;;106.60;99.80;;;;;;;;;;5063679;28;20917;-62
2024/01/16 06:08:54;;;;;;;98.55;93.35;;;;;;;;;;5075721;28;20443;-62
2024/01/16 06:11:30;;;;;;;82.28;77.82;;;;;;;;;;5069782;28;20427;-62
2024/01/16 06:13:58;;;;;;;69.15;65.35;;;;;;;;;;5076166;28;20786;-62
2024/01/16 06:16:27;;;;;;;85.00;80.40;;;;;;;;;;5058031;28;20431;-62
2024/01/16 06:18:55;;;;;;;62.15;58.75;;;;;;;;;;5066199;28;20488;-62
2024/01/16 06:21:24;;;;;;;94.20;89.18;;;;;;;;;;5070009;28;20463;-62
2024/01/16 06:23:52;;;;;;;87.22;82.43;;;;;;;;;;5075467;28;20482;-62
2024/01/16 06:26:21;;;;;;;91.68;86.63;;;;;;;;;;5081351;28;20444;-62
2024/01/16 06:28:49;;;;;;;105.47;99.88;;;;;;;;;;5070371;28;20431;-62
2024/01/16 06:31:17;;;;;;;87.45;82.75;;;;;;;;;;5066068;28;20431;-62
2024/01/16 06:33:45;;;;;;;91.15;85.15;;;;;;;;;;5077528;28;20790;-62
2024/01/16 06:36:12;;;;;;;94.82;89.55;;;;;;;;;;5084734;28;20422;-61
2024/01/16 06:38:42;;;;;;;111.90;106.05;;;;;;;;;;5073282;28;20431;-61
2024/01/16 06:41:11;;;;;;;109.25;103.25;;;;;;;;;;5069733;28;20427;-61
2024/01/16 06:43:39;;;;;;;108.82;103.07;;;;;;;;;;5068097;28;20424;-61
2024/01/16 06:46:06;;;;;;;110.95;105.05;;;;;;;;;;5075914;28;20459;-61
2024/01/16 06:48:39;;;;;;;92.50;86.85;;;;;;;;;;5077878;28;20467;-61
2024/01/16 06:51:08;;;;;;;89.80;84.32;;;;;;;;;;5070408;28;20433;-61
2024/01/16 06:53:35;;;;;;;61.05;57.47;;;;;;;;;;5071011;28;20427;-61
2024/01/16 06:56:03;;;;;;;95.55;90.32;;;;;;;;;;5069488;28;20427;-61
2024/01/16 06:58:30;;;;;;;84.68;80.07;;;;;;;;;;5075637;28;20990;-61
2024/01/16 07:01:00;;;;;;;86.65;81.95;;;;;;;;;;5068175;28;20922;-61
2024/01/16 07:03:27;;;;;;;99.53;94.07;;;;;;;;;;5060112;28;20491;-61
2024/01/16 07:05:54;;;;;;;89.45;84.65;;;;;;;;;;5063810;28;20797;-61
2024/01/16 07:08:31;;;;;;;77.28;73.10;;;;;;;;;;5068778;28;20429;-61
2024/01/16 07:10:58;;;;;;;85.47;80.90;;;;;;;;;;5056109;28;20913;-61
2024/01/16 07:13:25;;;;;;;75.87;71.80;;;;;;;;;;5064046;28;20423;-61
2024/01/16 07:15:52;;;;;;;93.00;88.10;;;;;;;;;;5068230;28;20914;-61
2024/01/16 07:18:22;;;;;;;117.15;111.13;;;;;;;;;;5078592;28;20449;-61
2024/01/16 07:20:49;;;;;;;106.57;100.85;;;;;;;;;;5062847;28;20435;-61
2024/01/16 07:23:17;;;;;;;109.03;103.30;;;;;;;;;;5073334;28;20952;-61
2024/01/16 07:25:44;;;;;;;102.75;97.32;;;;;;;;;;5070389;28;20434;-61
2024/01/16 07:28:11;;;;;;;96.47;91.07;;;;;;;;;;5072301;28;20425;-61
2024/01/16 07:30:39;;;;;;;92.60;87.45;;;;;;;;;;5065238;28;20787;-61
2024/01/16 07:33:06;;;;;;;93.93;89.00;;;;;;;;;;5062025;28;20506;-61
2024/01/16 07:35:34;;;;;;;75.45;71.25;;;;;;;;;;5071741;28;20499;-61
2024/01/16 07:38:02;;;;;;;80.38;75.53;;;;;;;;;;5069619;28;20426;-61
2024/01/16 07:40:33;;;;;;;82.85;77.97;;;;;;;;;;5078536;28;20989;-61
2024/01/16 07:43:00;;;;;;;90.32;85.53;;;;;;;;;;5072957;28;20429;-60
2024/01/16 07:45:28;;;;;;;81.78;77.43;;;;;;;;;;5067100;28;20477;-60
2024/01/16 07:47:55;;;;;;;53.60;50.60;;;;;;;;;;5065173;28;20431;-60
2024/01/16 07:50:22;;;;;;;75.95;71.85;;;;;;;;;;5065040;28;20437;-61
2024/01/16 07:52:50;;;;;;;58.15;54.65;;;;;;;;;;5063662;28;20538;-61
2024/01/16 07:55:19;;;;;;;83.57;78.45;;;;;;;;;;5063313;28;20450;-61
2024/01/16 07:57:53;;;;;;;89.45;84.25;;;;;;;;;;5057148;28;20431;-61
2024/01/16 08:00:20;;;;;;;89.88;85.00;;;;;;;;;;5063830;28;20502;-61
2024/01/16 08:02:56;;;;;;;88.15;83.22;;;;;;;;;;5064386;28;20854;-61
2024/01/16 08:05:25;;;;;;;99.30;93.90;;;;;;;;;;5054935;28;20459;-61
2024/01/16 08:07:52;;;;;;;106.43;100.63;;;;;;;;;;5061931;28;20434;-61
2024/01/16 08:10:20;;;;;;;110.28;104.53;;;;;;;;;;5059921;28;20431;-61
2024/01/16 08:12:47;;;;;;;95.97;90.80;;;;;;;;;;5048545;28;20436;-61
2024/01/16 08:15:17;;;;;;;115.45;109.32;;;;;;;;;;5059030;28;20489;-61
2024/01/16 08:17:44;;;;;;;141.05;132.52;;;;;;;;;;5064415;28;20429;-61
2024/01/16 08:20:11;;;;;;;133.80;127.00;;;;;;;;;;5069731;28;20432;-61
2024/01/16 08:22:39;;;;;;;94.85;89.32;;;;;;;;;;5068852;28;20936;-61
2024/01/16 08:25:07;;;;;;;167.65;159.05;;;;;;;;;;5065039;28;20507;-61
2024/01/16 08:27:37;;;;;;;161.38;152.80;;;;;;;;;;5070769;28;20461;-61
2024/01/16 08:30:05;;;;;;;144.75;137.23;;;;;;;;;;5066404;28;21095;-61
2024/01/16 08:32:32;;;;;;;141.60;134.27;;;;;;;;;;5073985;28;20448;-61
2024/01/16 08:35:00;;;;;;;157.65;149.23;;;;;;;;;;5062624;28;20967;-61
2024/01/16 08:37:27;;;;;;;132.70;125.65;;;;;;;;;;5072823;28;21095;-61
2024/01/16 08:39:54;;;;;;;138.40;131.20;;;;;;;;;;5061282;28;20453;-61
2024/01/16 08:42:21;;;;;;;140.65;133.07;;;;;;;;;;5072794;28;20433;-61
2024/01/16 08:44:49;;;;;;;149.65;141.48;;;;;;;;;;5066408;28;20513;-61
2024/01/16 08:47:19;;;;;;;138.02;130.70;;;;;;;;;;5071947;28;20432;-61
2024/01/16 08:49:46;;;;;;;135.95;128.90;;;;;;;;;;5059669;28;20427;-61
2024/01/16 08:52:14;;;;;;;111.82;105.90;;;;;;;;;;5056439;28;20436;-61
2024/01/16 08:54:41;;;;;;;84.60;80.07;;;;;;;;;;5075080;28;20433;-60
2024/01/16 08:57:10;;;;;;;126.78;119.32;;;;;;;;;;5051100;28;20512;-61
2024/01/16 08:59:44;;;;;;;130.95;124.18;;;;;;;;;;5065146;28;20435;-61
2024/01/16 09:02:12;;;;;;;149.67;141.70;;;;;;;;;;5067430;28;20423;-61
2024/01/16 09:04:41;;;;;;;103.25;97.70;;;;;;;;;;5061454;28;20791;-61
2024/01/16 09:07:08;;;;;;;99.23;93.87;;;;;;;;;;5052277;28;20446;-61
2024/01/16 09:09:36;;;;;;;119.00;112.72;;;;;;;;;;5066016;28;20596;-61
2024/01/16 09:12:06;;;;;;;111.90;105.72;;;;;;;;;;5057105;28;20437;-62
2024/01/16 09:14:33;;;;;;;118.72;112.07;;;;;;;;;;5064699;28;20901;-61
2024/01/16 09:17:00;;;;;;;119.55;112.95;;;;;;;;;;5064123;28;20489;-61
2024/01/16 09:19:28;;;;;;;152.88;144.45;;;;;;;;;;5065418;28;20471;-62
2024/01/16 09:21:55;;;;;;;150.88;141.48;;;;;;;;;;5057954;28;20428;-61
2024/01/16 09:24:22;;;;;;;142.48;134.77;;;;;;;;;;5064158;28;21287;-61
2024/01/16 09:26:49;;;;;;;100.32;94.65;;;;;;;;;;5070842;28;20435;-61
2024/01/16 09:29:17;;;;;;;116.85;110.10;;;;;;;;;;5055370;28;20871;-61
2024/01/16 09:31:44;;;;;;;152.65;143.82;;;;;;;;;;5061840;28;20463;-61
2024/01/16 09:34:13;;;;;;;139.95;132.65;;;;;;;;;;5069112;28;20462;-61
2024/01/16 09:36:40;;;;;;;135.68;128.23;;;;;;;;;;5072034;28;21107;-61
2024/01/16 09:39:08;;;;;;;161.93;153.15;;;;;;;;;;5064730;28;20441;-61
2024/01/16 09:41:38;;;;;;;166.20;157.30;;;;;;;;;;5052886;28;20434;-61
2024/01/16 09:44:05;;;;;;;154.93;146.90;;;;;;;;;;5060721;28;20432;-61
2024/01/16 09:46:34;;;;;;;148.32;140.52;;;;;;;;;;5064997;28;20522;-61
2024/01/16 09:49:02;;;;;;;102.13;96.05;;;;;;;;;;5056084;28;20921;-61
2024/01/16 09:51:30;;;;;;;117.18;110.82;;;;;;;;;;5054944;28;20458;-61
2024/01/16 09:53:57;;;;;;;88.43;83.50;;;;;;;;;;5068801;28;20453;-61
2024/01/16 09:56:24;;;;;;;88.03;82.68;;;;;;;;;;5071580;28;20499;-60
2024/01/16 09:59:05;;;;;;;143.43;135.65;;;;;;;;;;5061254;28;20421;-61
2024/01/16 10:01:33;;;;;;;143.35;135.57;;;;;;;;;;5065198;28;20522;-61
2024/01/16 10:04:00;;;;;;;159.95;151.40;;;;;;;;;;5077821;28;20422;-61
2024/01/16 10:06:28;;;;;;;120.20;113.88;;;;;;;;;;5067932;28;20429;-62
2024/01/16 10:08:55;;;;;;;95.10;90.00;;;;;;;;;;5066785;28;20481;-61
2024/01/16 10:11:23;;;;;;;81.45;76.95;;;;;;;;;;5064546;28;20934;-61
2024/01/16 10:13:50;;;;;;;112.27;106.43;;;;;;;;;;5068277;28;20532;-61
2024/01/16 10:16:17;;;;;;;85.72;81.10;;;;;;;;;;5069921;28;20462;-61
2024/01/16 10:18:44;;;;;;;83.65;79.05;;;;;;;;;;5056131;28;20666;-62
2024/01/16 10:21:22;;;;;;;116.63;110.18;;;;;;;;;;5071248;28;20522;-61
2024/01/16 10:23:50;;;;;;;87.55;82.75;;;;;;;;;;5069908;28;20514;-61
2024/01/16 10:26:18;;;;;;;111.32;105.53;;;;;;;;;;5049014;28;20433;-61
2024/01/16 10:28:45;;;;;;;69.28;65.47;;;;;;;;;;5067466;28;20914;-61
2024/01/16 10:31:16;;;;;;;88.88;83.88;;;;;;;;;;5078303;28;20429;-61
2024/01/16 10:33:44;;;;;;;82.18;77.45;;;;;;;;;;5074307;28;20439;-62
2024/01/16 10:36:20;;;;;;;90.35;85.07;;;;;;;;;;5075135;28;20435;-62
2024/01/16 10:38:47;;;;;;;86.85;81.65;;;;;;;;;;5064504;28;20433;-62
2024/01/16 10:41:17;;;;;;;89.93;85.03;;;;;;;;;;5065444;28;20429;-62
2024/01/16 10:43:44;;;;;;;113.47;107.45;;;;;;;;;;5069119;28;20474;-62
2024/01/16 10:46:12;;;;;;;114.95;108.40;;;;;;;;;;5064227;28;20427;-62
2024/01/16 10:48:40;;;;;;;136.20;128.80;;;;;;;;;;5063913;28;20439;-62
2024/01/16 10:51:08;;;;;;;92.40;87.53;;;;;;;;;;5065274;28;20450;-62
2024/01/16 10:53:35;;;;;;;108.50;102.40;;;;;;;;;;5066067;28;20523;-62
2024/01/16 10:56:04;;;;;;;92.93;87.50;;;;;;;;;;5072596;28;20443;-61
2024/01/16 10:58:34;;;;;;;115.50;109.47;;;;;;;;;;5063679;28;21311;-62
2024/01/16 11:01:06;;;;;;;111.05;105.07;;;;;;;;;;5065038;28;20530;-61
2024/01/16 11:03:39;;;;;;;123.75;116.75;;;;;;;;;;5058986;28;20856;-62
2024/01/16 11:06:11;;;;;;;117.05;110.80;;;;;;;;;;5062812;28;20430;-62
2024/01/16 11:08:39;;;;;;;113.68;107.47;;;;;;;;;;5063468;28;20907;-62
2024/01/16 11:11:07;;;;;;;115.37;109.13;;;;;;;;;;5061063;28;20457;-62
2024/01/16 11:13:36;;;;;;;73.38;68.90;;;;;;;;;;5067510;28;20469;-62
2024/01/16 11:16:04;;;;;;;122.13;115.82;;;;;;;;;;5055869;28;20435;-62
2024/01/16 11:18:32;;;;;;;91.45;86.05;;;;;;;;;;5073130;28;20426;-62
2024/01/16 11:21:00;;;;;;;101.50;96.20;;;;;;;;;;5078605;28;20435;-62
2024/01/16 11:23:38;;;;;;;111.00;105.05;;;;;;;;;;5069669;28;20463;-61
2024/01/16 11:26:24;;;;;;;124.78;117.95;;;;;;;;;;5058512;28;20459;-61
2024/01/16 11:28:56;;;;;;;103.60;97.60;;;;;;;;;;5058302;28;20427;-62
2024/01/16 11:31:33;;;;;;;60.20;56.60;;;;;;;;;;5059996;28;20431;-62
2024/01/16 11:34:04;;;;;;;81.00;76.43;;;;;;;;;;5062497;28;20468;-62
2024/01/16 11:36:57;;;;;;;63.72;60.13;;;;;;;;;;5083971;28;20507;-62
2024/01/16 11:39:25;;;;;;;66.80;62.88;;;;;;;;;;5054978;28;20423;-62
2024/01/16 11:41:52;;;;;;;94.20;88.93;;;;;;;;;;5073283;28;20573;-62
2024/01/16 11:44:39;;;;;;;101.88;96.53;;;;;;;;;;5066703;28;20434;-62
2024/01/16 11:47:08;;;;;;;101.65;96.07;;;;;;;;;;5060457;28;20831;-62
2024/01/16 11:49:38;;;;;;;95.18;89.90;;;;;;;;;;5063670;28;20796;-62
2024/01/16 11:52:11;;;;;;;103.85;98.40;;;;;;;;;;5081313;28;20971;-62
2024/01/16 11:54:38;;;;;;;92.78;87.78;;;;;;;;;;5065728;28;20431;-62
2024/01/16 11:57:25;;;;;;;61.13;57.70;;;;;;;;;;5063775;28;20961;-63
2024/01/16 11:59:55;;;;;;;60.03;56.50;;;;;;;;;;5067680;28;20427;-62
2024/01/16 12:02:25;;;;;;;92.22;87.15;;;;;;;;;;5060292;28;20431;-62
2024/01/16 12:04:56;;;;;;;90.53;85.38;;;;;;;;;;5053218;28;20431;-62
2024/01/16 12:07:23;;;;;;;65.47;61.78;;;;;;;;;;5056749;28;21067;-62
2024/01/16 12:09:51;;;;;;;64.78;61.17;;;;;;;;;;5060871;28;20466;-63
2024/01/16 12:12:27;;;;;;;71.88;67.88;;;;;;;;;;5058274;28;20487;-63
2024/01/16 12:14:54;;;;;;;60.53;56.85;;;;;;;;;;5048667;28;20423;-63
2024/01/16 12:17:22;;;;;;;72.28;67.68;;;;;;;;;;5058350;28;20435;-63
2024/01/16 12:19:49;;;;;;;70.10;65.82;;;;;;;;;;5065978;28;20524;-63
2024/01/16 12:22:22;;;;;;;63.97;60.10;;;;;;;;;;5064080;28;20423;-63
2024/01/16 12:24:50;;;;;;;53.47;50.03;;;;;;;;;;5057299;28;20451;-63
2024/01/16 12:27:17;;;;;;;65.70;61.83;;;;;;;;;;5051421;28;20459;-63
2024/01/16 12:29:44;;;;;;;75.35;70.65;;;;;;;;;;5064142;28;20505;-64
2024/01/16 12:32:14;;;;;;;78.10;73.65;;;;;;;;;;5070060;28;20450;-63
2024/01/16 12:34:46;;;;;;;81.43;76.78;;;;;;;;;;5064712;28;20922;-63
2024/01/16 12:37:14;;;;;;;75.72;71.20;;;;;;;;;;5080181;28;20820;-63
2024/01/16 12:39:41;;;;;;;83.53;78.82;;;;;;;;;;5087394;28;20453;-63
2024/01/16 12:42:09;;;;;;;94.00;88.22;;;;;;;;;;5082154;28;20457;-62
2024/01/16 12:44:37;;;;;;;73.10;68.53;;;;;;;;;;5053570;28;20420;-64
2024/01/16 12:47:07;;;;;;;70.63;66.35;;;;;;;;;;5058606;28;20427;-64
2024/01/16 12:49:43;;;;;;;63.63;59.70;;;;;;;;;;5071726;28;21132;-64
2024/01/16 12:52:18;;;;;;;62.05;58.17;;;;;;;;;;5064224;28;20459;-64
2024/01/16 12:54:49;;;;;;;64.97;60.93;;;;;;;;;;5072817;28;20429;-63
2024/01/16 12:57:20;;;;;;;69.68;65.70;;;;;;;;;;5082719;28;20434;-64
2024/01/16 12:59:48;;;;;;;77.07;72.43;;;;;;;;;;5050837;28;20425;-64
2024/01/16 13:02:26;;;;;;;61.73;57.97;;;;;;;;;;5059580;28;20507;-64
2024/01/16 13:04:58;;;;;;;67.88;63.88;;;;;;;;;;5053316;28;20428;-64
2024/01/16 13:07:26;;;;;;;74.28;69.28;;;;;;;;;;5067618;28;20926;-64
2024/01/16 13:10:06;;;;;;;107.60;101.72;;;;;;;;;;5074666;28;20425;-64
2024/01/16 13:12:33;;;;;;;97.47;91.97;;;;;;;;;;5064142;28;20432;-64
2024/01/16 13:15:00;;;;;;;97.30;91.93;;;;;;;;;;5057064;28;20850;-64
2024/01/16 13:17:31;;;;;;;95.88;90.05;;;;;;;;;;5065836;28;20467;-64
2024/01/16 13:19:58;;;;;;;90.78;85.68;;;;;;;;;;5070506;28;20446;-64
2024/01/16 13:22:29;;;;;;;100.15;94.47;;;;;;;;;;5065613;28;20508;-63
2024/01/16 13:25:11;;;;;;;90.38;85.18;;;;;;;;;;5067118;28;20902;-64
2024/01/16 13:27:38;;;;;;;123.75;117.07;;;;;;;;;;5077342;28;20496;-63
2024/01/16 13:30:08;;;;;;;115.40;108.82;;;;;;;;;;5073726;28;20481;-64
2024/01/16 13:32:36;;;;;;;104.88;99.05;;;;;;;;;;5060462;28;20429;-64
2024/01/16 13:35:11;;;;;;;99.10;93.57;;;;;;;;;;5053958;28;20823;-64
2024/01/16 13:37:40;;;;;;;96.45;90.95;;;;;;;;;;5064655;28;20482;-64
2024/01/16 13:40:15;;;;;;;93.85;88.63;;;;;;;;;;5063621;28;20921;-63
2024/01/16 13:42:46;;;;;;;93.95;88.00;;;;;;;;;;5054771;28;20438;-63
2024/01/16 13:45:18;;;;;;;67.97;63.93;;;;;;;;;;5069682;28;20516;-64
2024/01/16 13:47:45;;;;;;;88.80;83.50;;;;;;;;;;5059084;28;20507;-64
2024/01/16 13:50:12;;;;;;;103.95;98.38;;;;;;;;;;5053549;28;20431;-63
2024/01/16 13:52:40;;;;;;;104.25;98.30;;;;;;;;;;5070133;28;20554;-63
2024/01/16 13:55:15;;;;;;;122.15;115.60;;;;;;;;;;5071855;28;20949;-63
2024/01/16 13:57:48;;;;;;;103.43;97.75;;;;;;;;;;5062896;28;20928;-64
2024/01/16 14:00:21;;;;;;;109.38;102.93;;;;;;;;;;5059852;28;20431;-63
2024/01/16 14:02:49;;;;;;;78.50;74.10;;;;;;;;;;5064329;28;20429;-63
2024/01/16 14:05:17;;;;;;;94.72;88.47;;;;;;;;;;5064946;28;20977;-63
2024/01/16 14:07:46;;;;;;;90.20;85.35;;;;;;;;;;5073765;28;20462;-63
2024/01/16 14:10:14;;;;;;;105.47;99.60;;;;;;;;;;5057993;28;20427;-63
2024/01/16 14:12:42;;;;;;;120.20;113.50;;;;;;;;;;5076548;28;20437;-64
2024/01/16 14:15:18;;;;;;;115.13;109.10;;;;;;;;;;5063367;28;20438;-63
2024/01/16 14:17:46;;;;;;;120.22;113.47;;;;;;;;;;5064548;28;20523;-63